Time;durP1;ratioP1;P1;durP2;ratioP2;P2;SDS_P1;SDS_P2;PMS_P1;PMS_P2;Temp;Humidity;BMP_temperature;BMP_pressure;BME280_temperature;BME280_humidity;BME280_pressure;Samples;Min_cycle;Max_cycle;Signal;HPM_P1;HPM_P2
2022/08/30 00:03:21;;;;;;;16.50;5.10;;;;;;;16.83;88.84;102111.09;5038368;28;20508;-83
2022/08/30 00:05:47;;;;;;;24.42;5.70;;;;;;;16.80;88.87;102107.91;5017494;28;20484;-83
2022/08/30 00:08:12;;;;;;;21.75;6.07;;;;;;;16.81;89.16;102110.44;5027690;28;20053;-83
2022/08/30 00:10:39;;;;;;;16.70;5.07;;;;;;;16.80;89.14;102106.03;5052367;28;20045;-84
2022/08/30 00:13:06;;;;;;;31.80;5.20;;;;;;;16.79;89.22;102103.50;5009100;28;20029;-83
2022/08/30 00:15:32;;;;;;;17.52;4.72;;;;;;;16.81;89.30;102096.00;5006914;28;20045;-82
2022/08/30 00:17:57;;;;;;;15.88;4.85;;;;;;;16.76;89.38;102099.25;5014896;28;20108;-84
2022/08/30 00:20:29;;;;;;;15.00;5.30;;;;;;;16.77;89.26;102097.38;5019264;28;20041;-83
2022/08/30 00:22:54;;;;;;;21.52;5.30;;;;;;;16.77;89.47;102098.28;5035610;28;20037;-85
2022/08/30 00:25:21;;;;;;;15.32;4.72;;;;;;;16.76;89.31;102093.81;5016078;28;20116;-82
2022/08/30 00:27:47;;;;;;;17.58;4.43;;;;;;;16.72;89.53;102091.66;5025432;28;20030;-84
2022/08/30 00:30:13;;;;;;;24.35;4.88;;;;;;;16.73;89.61;102091.47;5012945;28;20064;-84
2022/08/30 00:32:39;;;;;;;21.35;5.75;;;;;;;16.72;89.81;102097.09;5017208;28;20405;-82
2022/08/30 00:35:07;;;;;;;17.02;4.65;;;;;;;16.65;89.82;102100.59;5027538;28;20049;-83
2022/08/30 00:37:33;;;;;;;15.18;4.90;;;;;;;16.60;89.86;102099.50;5017089;28;20026;-83
2022/08/30 00:39:58;;;;;;;20.73;4.78;;;;;;;16.63;89.94;102107.25;5021337;28;20032;-84
2022/08/30 00:42:24;;;;;;;13.82;4.65;;;;;;;16.65;90.06;102102.47;5010494;28;20053;-83
2022/08/30 00:44:49;;;;;;;21.42;4.78;;;;;;;16.64;90.11;102103.50;5037633;28;20381;-83
2022/08/30 00:47:15;;;;;;;14.98;4.32;;;;;;;16.66;89.93;102099.56;5024147;28;20033;-82
2022/08/30 00:49:43;;;;;;;18.05;4.65;;;;;;;16.65;89.76;102092.44;5030330;28;20093;-83
2022/08/30 00:52:11;;;;;;;9.75;4.13;;;;;;;16.63;89.79;102099.94;5035788;28;20037;-84
2022/08/30 00:54:37;;;;;;;16.63;4.57;;;;;;;16.64;89.86;102096.22;5051663;28;20037;-83
2022/08/30 00:57:03;;;;;;;12.55;4.32;;;;;;;16.61;89.94;102098.44;5029822;28;20041;-82
2022/08/30 00:59:29;;;;;;;13.05;4.25;;;;;;;16.64;89.85;102106.22;5040931;28;20044;-84
2022/08/30 01:01:54;;;;;;;21.98;4.63;;;;;;;16.64;89.81;102096.22;5023828;28;20034;-83
2022/08/30 01:04:22;;;;;;;11.20;4.57;;;;;;;16.63;89.92;102093.66;5017520;28;20055;-83
2022/08/30 01:06:48;;;;;;;22.92;5.15;;;;;;;16.60;89.94;102089.47;5005896;28;20069;-84
2022/08/30 01:09:13;;;;;;;14.90;4.32;;;;;;;16.61;90.22;102101.16;5019372;28;20033;-83
2022/08/30 01:11:40;;;;;;;15.50;5.30;;;;;;;16.65;90.12;102103.31;5011995;28;20117;-84
2022/08/30 01:14:07;;;;;;;16.90;5.00;;;;;;;16.61;90.06;102099.31;5006019;28;20041;-82
2022/08/30 01:16:33;;;;;;;15.32;4.47;;;;;;;16.59;90.24;102093.22;5012730;28;20081;-83
2022/08/30 01:18:59;;;;;;;16.50;4.38;;;;;;;16.57;90.35;102097.16;5014590;28;20465;-83
2022/08/30 01:21:31;;;;;;;23.65;5.07;;;;;;;16.54;90.52;102102.97;5020431;28;20054;-83
2022/08/30 01:23:57;;;;;;;26.05;5.45;;;;;;;16.56;90.57;102103.59;5038670;28;20037;-83
2022/08/30 01:26:23;;;;;;;13.70;4.80;;;;;;;16.55;90.62;102101.94;5009851;28;20472;-84
2022/08/30 01:28:51;;;;;;;13.68;4.53;;;;;;;16.57;90.86;102106.16;5020114;28;20465;-83
2022/08/30 01:31:16;;;;;;;17.75;4.25;;;;;;;16.55;90.83;102108.22;5015150;28;20021;-83
2022/08/30 01:33:42;;;;;;;12.45;4.90;;;;;;;16.58;90.81;102112.41;5032753;28;20029;-84
2022/08/30 01:36:11;;;;;;;15.80;5.28;;;;;;;16.53;90.82;102109.44;5024599;28;20029;-83
2022/08/30 01:38:43;;;;;;;13.77;5.22;;;;;;;16.53;91.02;102109.44;5024073;28;20088;-82
2022/08/30 01:41:19;;;;;;;17.98;4.95;;;;;;;16.51;91.21;102106.06;5017985;28;20109;-83
2022/08/30 01:43:45;;;;;;;17.35;4.63;;;;;;;16.46;91.08;102099.34;5009006;28;20401;-84
2022/08/30 01:46:12;;;;;;;15.30;4.68;;;;;;;16.50;91.20;102098.94;5046499;28;20352;-83
2022/08/30 01:48:38;;;;;;;12.65;4.63;;;;;;;16.51;91.22;102100.63;5037099;28;20089;-82
2022/08/30 01:51:04;;;;;;;21.45;5.30;;;;;;;16.48;91.34;102093.69;5028327;28;20076;-82
2022/08/30 01:53:29;;;;;;;15.90;5.43;;;;;;;16.49;91.49;102089.97;5019049;28;20062;-83
2022/08/30 01:55:55;;;;;;;17.58;5.85;;;;;;;16.49;91.76;102092.69;5019386;28;20106;-83
2022/08/30 01:58:21;;;;;;;12.88;4.75;;;;;;;16.49;91.67;102083.69;5005627;28;20519;-83
2022/08/30 02:00:46;;;;;;;23.60;5.50;;;;;;;16.53;91.76;102095.84;5029074;28;20030;-83
2022/08/30 02:03:11;;;;;;;17.23;5.45;;;;;;;16.49;91.98;102098.09;5022320;28;20037;-84
2022/08/30 02:08:17;;;;;;;14.52;4.90;;;;;;;16.48;92.11;102107.28;5083813;22;20053;-41
2022/08/30 02:10:43;;;;;;;11.30;5.05;;;;;;;16.50;92.17;102109.81;5068287;28;20049;-41
2022/08/30 02:13:08;;;;;;;12.68;5.70;;;;;;;16.49;92.39;102108.16;5070809;28;20040;-41
2022/08/30 02:15:34;;;;;;;14.98;5.20;;;;;;;16.49;92.38;102108.16;5065898;28;20028;-40
2022/08/30 02:17:59;;;;;;;17.58;5.95;;;;;;;16.54;92.28;102101.09;5066230;28;20036;-40
2022/08/30 02:20:25;;;;;;;13.35;5.65;;;;;;;16.56;92.16;102104.47;5048856;28;20075;-39
2022/08/30 02:22:50;;;;;;;13.88;5.32;;;;;;;16.55;92.11;102099.22;5049256;28;20055;-42
2022/08/30 02:25:15;;;;;;;15.82;5.85;;;;;;;16.57;92.12;102102.59;5068553;28;20037;-40
2022/08/30 02:27:41;;;;;;;18.25;7.25;;;;;;;16.57;92.03;102098.00;5051034;28;20506;-41
2022/08/30 02:30:08;;;;;;;14.52;6.10;;;;;;;16.57;92.06;102102.59;5070213;28;20028;-40
2022/08/30 02:32:33;;;;;;;13.57;7.47;;;;;;;16.50;91.97;102104.38;5052744;28;20037;-42
2022/08/30 02:34:59;;;;;;;17.40;7.38;;;;;;;16.50;92.13;102096.22;5068080;28;20040;-42
2022/08/30 02:37:24;;;;;;;18.65;7.03;;;;;;;16.43;92.25;102094.28;5068777;28;20499;-40
2022/08/30 02:39:49;;;;;;;12.68;7.45;;;;;;;16.43;92.25;102094.28;5069656;28;20468;-41
2022/08/30 02:42:15;;;;;;;14.88;7.68;;;;;;;16.42;92.10;102089.88;5066397;28;20021;-41
2022/08/30 02:44:40;;;;;;;13.65;7.53;;;;;;;16.39;92.15;102087.53;5073119;28;20472;-41
2022/08/30 02:47:06;;;;;;;10.93;6.75;;;;;;;16.34;92.14;102084.53;5073711;28;20021;-42
2022/08/30 02:49:31;;;;;;;16.95;8.25;;;;;;;16.32;92.24;102083.88;5073574;28;20451;-41
2022/08/30 02:51:57;;;;;;;15.55;7.20;;;;;;;16.32;92.25;102086.59;5069989;28;20479;-41
2022/08/30 02:54:23;;;;;;;15.38;8.27;;;;;;;16.29;91.88;102083.44;5071338;28;20080;-41
2022/08/30 02:56:49;;;;;;;18.23;8.82;;;;;;;16.25;92.03;102088.41;5073616;28;20552;-39
2022/08/30 02:59:15;;;;;;;14.75;9.07;;;;;;;16.23;92.03;102088.59;5073566;28;20464;-42
2022/08/30 03:01:41;;;;;;;19.60;9.85;;;;;;;16.26;91.87;102083.81;5052059;28;20029;-41
2022/08/30 03:04:07;;;;;;;22.40;9.68;;;;;;;16.22;91.63;102092.34;5070092;28;20027;-43
2022/08/30 03:06:32;;;;;;;20.33;10.48;;;;;;;16.20;91.64;102080.81;5072720;28;20036;-40
2022/08/30 03:08:58;;;;;;;15.05;9.32;;;;;;;16.18;91.58;102079.31;5062160;28;20048;-41
2022/08/30 03:11:24;;;;;;;22.60;10.60;;;;;;;16.17;91.37;102083.09;5051772;28;20041;-41
2022/08/30 03:13:50;;;;;;;17.40;10.65;;;;;;;16.14;91.44;102078.00;5054229;28;20103;-41
2022/08/30 03:16:15;;;;;;;22.30;11.15;;;;;;;16.14;91.52;102078.00;5054408;28;20027;-40
2022/08/30 03:18:44;;;;;;;15.13;10.52;;;;;;;16.10;91.50;102077.53;5052138;28;20124;-42
2022/08/30 03:21:11;;;;;;;37.33;13.25;;;;;;;16.07;91.53;102071.66;5052222;28;20052;-42
2022/08/30 03:23:37;;;;;;;21.35;12.45;;;;;;;16.10;91.38;102069.41;5050981;28;20025;-42
2022/08/30 03:26:02;;;;;;;20.33;11.50;;;;;;;16.08;91.21;102067.91;5051046;28;20032;-41
2022/08/30 03:28:28;;;;;;;22.40;11.07;;;;;;;16.08;91.21;102062.47;5017834;28;20124;-41
2022/08/30 03:30:55;;;;;;;19.30;11.73;;;;;;;16.05;90.95;102069.13;5034780;28;20055;-42
2022/08/30 03:33:21;;;;;;;17.43;11.17;;;;;;;15.99;91.09;102065.28;5035505;28;20037;-43
2022/08/30 03:35:48;;;;;;;23.00;11.20;;;;;;;15.98;91.17;102060.91;5053494;28;20025;-42
2022/08/30 03:38:14;;;;;;;23.25;12.32;;;;;;;15.97;91.37;102072.78;5053223;28;20063;-42
2022/08/30 03:40:39;;;;;;;21.83;12.18;;;;;;;15.93;91.27;102065.19;5034823;28;20112;-41
2022/08/30 03:43:05;;;;;;;19.83;12.02;;;;;;;15.92;91.48;102056.19;5052835;28;20103;-42
2022/08/30 03:45:30;;;;;;;23.20;12.50;;;;;;;15.89;91.53;102063.88;5052578;28;20025;-42
2022/08/30 03:47:55;;;;;;;18.98;12.52;;;;;;;15.89;91.52;102064.72;5060075;28;20111;-42
2022/08/30 03:50:21;;;;;;;32.10;12.65;;;;;;;15.89;91.63;102063.88;5038223;28;20112;-42
2022/08/30 03:52:47;;;;;;;23.45;13.18;;;;;;;15.86;91.43;102062.38;5033494;28;20403;-41
2022/08/30 03:55:13;;;;;;;30.55;12.23;;;;;;;15.82;91.55;102058.34;5034208;28;20048;-42
2022/08/30 03:57:41;;;;;;;23.05;13.52;;;;;;;15.81;91.82;102056.69;5052226;28;20434;-42
2022/08/30 04:00:07;;;;;;;25.73;13.82;;;;;;;15.80;91.83;102061.25;5052215;28;20029;-41
2022/08/30 04:02:33;;;;;;;23.25;11.90;;;;;;;15.80;91.86;102060.44;5052695;28;20064;-42
2022/08/30 04:04:58;;;;;;;22.10;13.00;;;;;;;15.76;91.81;102059.09;5052809;28;20091;-41
2022/08/30 04:07:23;;;;;;;25.13;13.30;;;;;;;15.76;92.12;102057.22;5051126;28;20095;-43
2022/08/30 04:09:49;;;;;;;22.90;12.05;;;;;;;15.76;92.16;102059.09;5060337;28;20033;-42
2022/08/30 04:12:14;;;;;;;20.25;13.07;;;;;;;15.72;92.10;102058.66;5060687;28;20024;-42
2022/08/30 04:14:39;;;;;;;20.10;12.00;;;;;;;15.70;92.34;102059.84;5015080;28;20030;-41
2022/08/30 04:17:05;;;;;;;22.30;12.38;;;;;;;15.70;92.25;102047.13;5043595;28;20060;-41
2022/08/30 04:19:30;;;;;;;22.08;12.98;;;;;;;15.72;92.30;102052.38;5052052;28;20037;-41
2022/08/30 04:21:56;;;;;;;24.80;13.23;;;;;;;15.72;92.20;102057.81;5052508;28;20120;-41
2022/08/30 04:24:21;;;;;;;22.75;13.10;;;;;;;15.65;92.47;102056.81;5052485;28;20083;-41
2022/08/30 04:26:47;;;;;;;25.30;12.68;;;;;;;15.66;92.61;102058.50;5051202;28;20367;-41
2022/08/30 04:29:15;;;;;;;25.58;12.32;;;;;;;15.65;92.53;102059.53;5051817;28;20435;-42
2022/08/30 04:31:41;;;;;;;22.48;13.20;;;;;;;15.69;92.65;102066.28;5047515;28;20029;-40
2022/08/30 04:34:11;;;;;;;21.63;13.00;;;;;;;15.69;92.58;102052.72;5049493;28;20079;-41
2022/08/30 04:36:36;;;;;;;22.08;11.93;;;;;;;15.70;92.73;102060.69;5052009;28;20052;-42
2022/08/30 04:39:02;;;;;;;22.15;12.68;;;;;;;15.68;92.85;102068.16;5050265;28;20059;-42
2022/08/30 04:41:28;;;;;;;22.95;13.05;;;;;;;15.67;92.98;102069.19;5051704;28;20483;-41
2022/08/30 04:43:53;;;;;;;26.30;12.85;;;;;;;15.69;93.27;102074.44;5052277;28;20025;-42
2022/08/30 04:46:19;;;;;;;21.17;12.18;;;;;;;15.70;92.91;102070.72;5052819;28;20028;-41
2022/08/30 04:48:45;;;;;;;30.83;13.85;;;;;;;15.70;93.19;102076.97;5052939;28;20036;-42
2022/08/30 04:51:13;;;;;;;26.48;13.60;;;;;;;15.70;93.11;102073.44;5033240;28;20021;-42
2022/08/30 04:53:38;;;;;;;;;;;;;;;15.65;93.04;102073.13;5047638;28;20028;-41
2022/08/30 04:56:09;;;;;;;18.60;12.10;;;;;;;15.70;92.76;102076.16;5051433;28;20029;-42
2022/08/30 04:58:34;;;;;;;25.95;12.98;;;;;;;15.69;92.90;102085.28;5040908;28;20078;-41
2022/08/30 05:00:59;;;;;;;22.02;13.00;;;;;;;15.62;93.13;102081.63;5049853;28;20029;-41
2022/08/30 05:03:25;;;;;;;19.60;12.35;;;;;;;15.66;93.32;102089.19;5047056;28;20055;-44
2022/08/30 05:05:50;;;;;;;24.83;12.98;;;;;;;15.68;93.29;102097.16;5050235;28;20028;-39
2022/08/30 05:08:19;;;;;;;20.55;12.00;;;;;;;15.72;92.91;102093.09;5051306;28;20085;-42
2022/08/30 05:10:47;;;;;;;22.20;12.60;;;;;;;15.72;92.83;102090.38;5051624;28;20067;-42
2022/08/30 05:13:13;;;;;;;28.48;13.57;;;;;;;15.72;92.99;102095.81;5032331;28;20021;-40
2022/08/30 05:15:39;;;;;;;20.55;12.95;;;;;;;15.76;92.70;102102.53;5050671;28;20033;-42
2022/08/30 05:18:06;;;;;;;28.67;13.43;;;;;;;15.78;92.84;102111.34;5050570;28;20086;-42
2022/08/30 05:20:31;;;;;;;28.33;15.00;;;;;;;15.73;92.62;102106.47;5049739;28;20479;-42
2022/08/30 05:22:57;;;;;;;22.55;13.35;;;;;;;15.73;92.69;102102.91;5049176;28;20053;-43
2022/08/30 05:25:25;;;;;;;30.52;13.85;;;;;;;15.73;93.20;102105.63;5033116;28;20071;-41
2022/08/30 05:27:51;;;;;;;24.00;13.40;;;;;;;15.77;92.95;102112.34;5031678;28;20563;-42
2022/08/30 05:30:17;;;;;;;28.85;13.18;;;;;;;15.85;92.89;102115.00;5050953;28;20037;-42
2022/08/30 05:32:43;;;;;;;20.88;12.60;;;;;;;16.00;93.07;102109.56;5051054;28;20037;-41
2022/08/30 05:35:11;;;;;;;24.15;13.05;;;;;;;16.22;92.03;102105.09;5050981;28;20029;-40
2022/08/30 05:37:36;;;;;;;19.60;13.00;;;;;;;16.59;90.88;102116.84;5052101;28;20437;-40
2022/08/30 05:40:04;;;;;;;21.50;12.52;;;;;;;16.96;88.41;102109.56;5052025;28;20104;-42
2022/08/30 05:42:30;;;;;;;25.27;11.77;;;;;;;17.32;86.37;102121.22;5050070;28;20029;-41
2022/08/30 05:44:55;;;;;;;23.83;11.30;;;;;;;17.72;83.92;102121.53;5032440;28;20058;-40
2022/08/30 05:47:21;;;;;;;17.48;10.35;;;;;;;18.18;81.12;102114.72;5051336;28;20021;-41
2022/08/30 05:49:46;;;;;;;25.75;11.40;;;;;;;18.54;79.12;102116.38;5051365;28;20036;-42
2022/08/30 05:52:14;;;;;;;18.95;10.23;;;;;;;18.93;76.72;102115.69;5050450;28;20431;-42
2022/08/30 05:54:40;;;;;;;20.02;10.05;;;;;;;19.32;75.22;102116.75;5029979;28;20044;-42
2022/08/30 05:57:06;;;;;;;18.08;10.93;;;;;;;19.68;72.82;102121.00;5035596;28;20071;-42
2022/08/30 05:59:32;;;;;;;17.90;9.98;;;;;;;20.05;71.50;102115.91;5030193;28;20021;-43
2022/08/30 06:01:57;;;;;;;19.38;10.02;;;;;;;20.34;69.57;102118.09;5050764;28;20099;-40
2022/08/30 06:04:23;;;;;;;15.55;10.18;;;;;;;20.42;68.46;102127.13;5052196;28;20040;-40
2022/08/30 06:06:48;;;;;;;21.00;9.32;;;;;;;20.57;68.34;102131.31;5051164;28;20100;-42
2022/08/30 06:09:14;;;;;;;17.38;9.85;;;;;;;20.16;68.34;102128.88;5048584;28;20519;-42
2022/08/30 06:11:40;;;;;;;19.08;10.40;;;;;;;19.63;70.23;102129.78;5048138;28;20091;-42
2022/08/30 06:14:06;;;;;;;21.08;11.05;;;;;;;19.33;72.37;102134.84;5030989;28;20028;-42
2022/08/30 06:16:32;;;;;;;23.20;11.07;;;;;;;19.46;71.84;102126.66;5060587;28;20099;-42
2022/08/30 06:18:58;;;;;;;19.27;10.43;;;;;;;19.88;70.65;102130.03;5059368;28;20109;-43
2022/08/30 06:21:27;;;;;;;16.33;10.07;;;;;;;20.37;68.60;102125.03;5050034;28;20079;-41
2022/08/30 06:23:53;;;;;;;17.05;9.90;;;;;;;20.32;67.64;102127.59;5049941;28;20276;-41
2022/08/30 06:26:19;;;;;;;23.42;10.38;;;;;;;20.35;68.01;102130.75;5043815;28;20365;-41
2022/08/30 06:28:45;;;;;;;19.88;10.65;;;;;;;19.95;68.16;102130.00;5016624;28;20021;-42
2022/08/30 06:31:13;;;;;;;21.45;10.20;;;;;;;19.60;69.37;102122.03;5052650;28;20537;-42
2022/08/30 06:33:38;;;;;;;19.30;10.48;;;;;;;19.33;70.72;102128.53;5052222;28;20035;-42
2022/08/30 06:36:09;;;;;;;25.33;11.18;;;;;;;19.02;71.91;102124.50;5053001;28;20037;-43
2022/08/30 06:38:35;;;;;;;24.63;12.25;;;;;;;18.79;72.80;102122.13;5052749;28;20476;-42
2022/08/30 06:41:08;;;;;;;24.88;11.75;;;;;;;18.69;73.53;102135.28;5053044;28;20100;-42
2022/08/30 06:43:34;;;;;;;26.27;12.10;;;;;;;18.55;74.40;102135.22;5020947;28;20032;-43
2022/08/30 06:46:04;;;;;;;21.23;12.20;;;;;;;18.48;74.44;102128.91;4989219;28;20392;-43
2022/08/30 06:48:30;;;;;;;32.08;11.95;;;;;;;18.39;74.58;102120.06;5043285;28;20106;-43
2022/08/30 06:50:55;;;;;;;26.95;11.88;;;;;;;18.40;74.88;102124.50;5045495;28;20512;-42
2022/08/30 06:53:21;;;;;;;20.52;10.82;;;;;;;18.44;74.59;102124.91;5047400;28;20056;-43
2022/08/30 06:55:56;;;;;;;26.13;11.98;;;;;;;18.35;74.24;102120.66;5046218;28;20115;-40
2022/08/30 06:58:23;;;;;;;19.58;10.77;;;;;;;18.40;74.51;102116.31;5047726;28;20025;-45
2022/08/30 07:00:48;;;;;;;22.48;10.60;;;;;;;18.95;73.49;102116.28;5046454;28;20131;-43
2022/08/30 07:03:13;;;;;;;23.50;9.43;;;;;;;20.20;67.44;102108.28;5047124;28;20164;-42
2022/08/30 07:05:39;;;;;;;22.08;8.75;;;;;;;21.04;64.79;102109.16;5042968;28;20156;-44
2022/08/30 07:08:04;;;;;;;24.40;8.98;;;;;;;22.05;60.94;102120.94;5047158;28;20068;-43
2022/08/30 07:10:30;;;;;;;15.38;7.70;;;;;;;23.00;57.47;102118.50;5046790;28;20021;-43
2022/08/30 07:12:55;;;;;;;22.25;7.97;;;;;;;23.54;55.11;102118.50;5029639;28;20039;-43
2022/08/30 07:15:21;;;;;;;13.55;7.32;;;;;;;24.02;54.47;102120.19;5047809;28;20465;-45
2022/08/30 07:20:31;;;;;;;16.48;7.03;;;;;;;25.48;50.41;102126.34;5044394;28;20400;-43
2022/08/30 07:22:56;;;;;;;19.90;7.78;;;;;;;26.00;48.08;102117.78;5045045;28;20048;-42
2022/08/30 07:25:22;;;;;;;20.48;8.15;;;;;;;25.55;47.92;102121.50;5026597;28;20028;-40
2022/08/30 07:27:50;;;;;;;18.48;7.85;;;;;;;25.48;47.98;102121.66;5033901;28;20082;-42
2022/08/30 07:30:16;;;;;;;21.33;8.00;;;;;;;25.29;48.47;102134.03;5052240;28;20029;-42
2022/08/30 07:32:41;;;;;;;13.65;6.93;;;;;;;25.55;48.44;102136.13;5030806;28;20028;-41
2022/08/30 07:35:07;;;;;;;17.77;6.93;;;;;;;25.45;47.55;102124.94;5034610;28;20024;-43
2022/08/30 07:37:32;;;;;;;12.80;6.90;;;;;;;25.03;48.26;102125.28;5043472;28;20060;-44
2022/08/30 07:39:57;;;;;;;15.00;7.05;;;;;;;24.88;49.32;102130.50;5051792;28;20055;-42
2022/08/30 07:42:23;;;;;;;13.35;7.13;;;;;;;25.19;48.09;102137.44;5033758;28;20115;-42
2022/08/30 07:44:48;;;;;;;15.43;6.60;;;;;;;25.59;47.08;102141.94;5032426;28;20063;-42
2022/08/30 07:47:15;;;;;;;19.60;6.35;;;;;;;25.57;46.48;102142.22;5044433;28;20055;-41
2022/08/30 07:49:40;;;;;;;22.63;7.15;;;;;;;25.67;46.38;102144.28;5033462;28;20116;-43
2022/08/30 07:52:06;;;;;;;12.75;5.25;;;;;;;26.22;45.38;102143.47;5052058;28;20120;-41
2022/08/30 07:54:31;;;;;;;18.60;5.90;;;;;;;27.12;42.79;102145.88;5033892;28;20111;-41
2022/08/30 07:56:57;;;;;;;18.40;5.75;;;;;;;27.42;41.56;102155.63;5033796;28;20492;-44
2022/08/30 07:59:22;;;;;;;10.18;4.82;;;;;;;27.45;41.71;102155.91;5051578;28;20064;-41
2022/08/30 08:01:48;;;;;;;12.88;4.80;;;;;;;27.81;41.48;102153.47;5050897;28;20415;-41
2022/08/30 08:04:13;;;;;;;8.98;4.82;;;;;;;27.92;39.57;102143.28;5051130;28;20499;-42
2022/08/30 08:06:39;;;;;;;13.70;4.65;;;;;;;27.82;39.74;102154.28;5051657;28;20036;-41
2022/08/30 08:09:05;;;;;;;11.45;4.35;;;;;;;27.59;39.72;102145.22;5052788;28;20037;-40
2022/08/30 08:11:32;;;;;;;8.85;3.88;;;;;;;27.38;38.92;102149.75;5051394;28;20106;-42
2022/08/30 08:13:59;;;;;;;10.65;3.30;;;;;;;27.23;39.08;102147.72;5050042;28;20064;-42
2022/08/30 08:16:26;;;;;;;11.60;3.58;;;;;;;27.27;38.94;102153.53;5048689;28;20060;-40
2022/08/30 08:18:52;;;;;;;8.32;3.38;;;;;;;27.51;39.32;102152.06;5050612;28;20423;-41
2022/08/30 08:21:18;;;;;;;7.27;3.37;;;;;;;26.98;38.84;102159.31;5043093;28;20029;-42
2022/08/30 08:23:43;;;;;;;11.65;3.80;;;;;;;26.74;39.10;102153.25;5033337;28;20107;-40
2022/08/30 08:26:09;;;;;;;11.13;3.42;;;;;;;26.90;39.80;102152.31;5050776;28;20031;-42
2022/08/30 08:28:34;;;;;;;11.70;3.38;;;;;;;27.19;40.15;102149.31;5033702;28;20021;-42
2022/08/30 08:30:59;;;;;;;10.85;2.90;;;;;;;27.10;38.72;102148.09;5049806;28;20056;-42
2022/08/30 08:33:25;;;;;;;7.72;2.90;;;;;;;27.18;37.84;102149.59;5051754;28;20096;-41
2022/08/30 08:35:50;;;;;;;10.68;2.97;;;;;;;27.35;38.17;102144.75;5051510;28;20356;-42
2022/08/30 08:38:15;;;;;;;11.73;3.33;;;;;;;26.61;38.35;102145.38;5059324;28;20410;-40
2022/08/30 08:40:46;;;;;;;12.00;2.85;;;;;;;26.58;38.91;102140.38;5071404;28;20108;-42
2022/08/30 08:43:14;;;;;;;8.32;3.03;;;;;;;26.58;39.42;102140.38;5053210;28;20090;-42
2022/08/30 08:46:11;;;;;;;8.77;2.80;;;;;;;26.54;39.27;102145.56;5038052;28;20021;-42
2022/08/30 08:48:51;;;;;;;8.55;2.90;;;;;;;26.88;38.71;102156.44;5050883;28;20037;-39
2022/08/30 08:54:38;;;;;;;8.27;2.60;;;;;;;27.54;37.28;102153.47;5036389;28;20569;-42
2022/08/30 08:57:03;;;;;;;;;;;;;;;28.02;36.07;102141.41;5051829;28;20107;-42
2022/08/30 08:59:28;;;;;;;9.93;2.83;;;;;;;28.62;35.21;102143.91;5050297;28;20000;-42
2022/08/30 09:01:59;;;;;;;5.05;2.75;;;;;;;29.00;33.50;102142.63;5032857;28;20107;-41
2022/08/30 09:04:30;;;;;;;12.23;2.60;;;;;;;28.14;34.49;102143.94;5050680;28;20075;-42
2022/08/30 09:06:59;;;;;;;8.57;2.70;;;;;;;27.98;35.57;102147.75;5032531;28;20028;-39
2022/08/30 09:09:27;;;;;;;8.65;2.38;;;;;;;28.62;35.70;102147.53;5034392;28;20068;-41
2022/08/30 09:11:52;;;;;;;13.32;2.55;;;;;;;28.92;34.25;102145.09;5070395;28;20043;-41
2022/08/30 09:14:21;;;;;;;7.90;2.42;;;;;;;28.70;33.50;102139.78;5067149;28;20033;-41
2022/08/30 09:16:51;;;;;;;10.25;2.72;;;;;;;28.40;34.15;102138.53;5050563;28;20033;-42
2022/08/30 09:19:40;;;;;;;9.80;3.05;;;;;;;28.17;34.47;102140.66;5049798;28;20037;-41
2022/08/30 09:22:20;;;;;;;6.10;2.42;;;;;;;28.44;34.49;102145.25;5050822;28;20033;-40
2022/08/30 09:24:52;;;;;;;12.45;2.95;;;;;;;28.63;34.13;102151.94;5050448;28;20065;-40
2022/08/30 09:27:25;;;;;;;10.80;2.83;;;;;;;28.20;34.56;102144.81;5032419;28;20029;-40
2022/08/30 09:29:53;;;;;;;12.45;3.10;;;;;;;28.23;34.60;102145.13;5050142;28;20089;-41
2022/08/30 09:32:53;;;;;;;6.47;3.00;;;;;;;27.81;35.61;102147.09;5032271;28;20020;-42
2022/08/30 09:35:21;;;;;;;10.13;3.08;;;;;;;27.84;35.75;102138.25;5048362;28;20481;-42
2022/08/30 09:38:03;;;;;;;9.10;2.85;;;;;;;28.16;35.33;102138.97;5054923;28;20028;-42
2022/08/30 09:40:39;;;;;;;9.35;2.78;;;;;;;28.56;34.59;102148.59;5039820;28;20029;-42
2022/08/30 09:43:16;;;;;;;6.78;3.13;;;;;;;28.55;35.23;102144.16;5050062;28;20039;-42
2022/08/30 09:46:06;;;;;;;11.50;3.00;;;;;;;28.97;34.74;102148.72;5049965;28;20071;-41
2022/08/30 09:48:39;;;;;;;8.57;2.65;;;;;;;29.36;33.83;102142.69;5038055;28;20198;-40
2022/08/30 09:51:10;;;;;;;6.55;2.67;;;;;;;29.63;32.71;102145.16;5016188;28;20049;-41
2022/08/30 09:53:42;;;;;;;4.55;2.70;;;;;;;29.66;32.24;102149.34;5048904;28;20029;-42
2022/08/30 09:56:30;;;;;;;6.50;2.35;;;;;;;28.62;32.96;102147.53;5035056;28;20117;-41
2022/08/30 09:59:19;;;;;;;11.88;3.40;;;;;;;28.34;34.23;102145.16;5035194;28;20048;-39
2022/08/30 10:02:11;;;;;;;7.07;2.30;;;;;;;27.68;34.01;102151.94;5037427;28;20098;-43
2022/08/30 10:04:45;;;;;;;7.60;2.65;;;;;;;26.68;35.05;102140.47;5047251;28;20021;-41
2022/08/30 10:07:18;;;;;;;5.60;2.70;;;;;;;26.04;36.97;102138.25;5038266;28;20480;-42
2022/08/30 10:09:57;;;;;;;12.77;2.28;;;;;;;25.83;36.54;102131.59;5050947;28;20356;-39
2022/08/30 10:12:41;;;;;;;10.07;2.40;;;;;;;25.81;37.49;102136.53;5035616;28;20025;-42
2022/08/30 10:15:24;;;;;;;5.72;2.65;;;;;;;25.82;37.16;102132.66;5043954;28;20377;-41
2022/08/30 10:18:14;;;;;;;10.25;2.80;;;;;;;25.81;37.29;102136.53;5046443;28;20039;-40
2022/08/30 10:20:54;;;;;;;15.65;3.00;;;;;;;25.36;37.55;102129.19;5053258;28;20376;-40
2022/08/30 10:23:39;;;;;;;3.90;2.30;;;;;;;25.55;37.47;102135.28;5053080;28;20498;-39
2022/08/30 10:26:17;;;;;;;7.43;2.60;;;;;;;25.59;37.56;102129.03;5053679;28;20029;-39
2022/08/30 10:28:45;;;;;;;9.65;2.50;;;;;;;25.37;37.65;102131.69;5035553;28;20082;-37
2022/08/30 10:31:27;;;;;;;11.25;2.67;;;;;;;25.48;38.15;102132.69;5018301;28;20033;-40
2022/08/30 10:33:57;;;;;;;8.38;2.78;;;;;;;25.54;37.66;102137.22;5031614;28;20033;-41
2022/08/30 10:36:31;;;;;;;6.30;2.30;;;;;;;25.59;38.17;102137.31;5052933;28;20036;-41
2022/08/30 10:38:57;;;;;;;7.05;2.70;;;;;;;25.57;37.51;102133.94;5035425;28;20025;-41
2022/08/30 10:41:42;;;;;;;6.10;2.15;;;;;;;25.77;37.42;102149.97;5035162;28;20507;-41
2022/08/30 10:44:18;;;;;;;7.28;2.50;;;;;;;25.88;36.61;102148.22;5032405;28;20034;-39
2022/08/30 10:47:01;;;;;;;8.02;3.00;;;;;;;25.55;38.05;102149.91;5026864;28;20025;-42
2022/08/30 10:49:29;;;;;;;10.43;2.40;;;;;;;25.41;36.43;102145.81;5035355;28;20199;-41
2022/08/30 10:52:07;;;;;;;7.43;3.00;;;;;;;25.02;36.62;102145.66;5037091;28;20021;-41
2022/08/30 10:54:38;;;;;;;5.75;2.60;;;;;;;24.90;37.64;102153.13;5051634;28;20432;-40
2022/08/30 10:57:04;;;;;;;11.07;2.78;;;;;;;24.54;38.10;102144.19;5050632;28;20036;-42
2022/08/30 10:59:29;;;;;;;11.45;2.70;;;;;;;24.70;38.58;102146.16;5046182;28;20361;-42
2022/08/30 11:02:17;;;;;;;8.52;2.60;;;;;;;24.73;37.91;102145.66;5018345;28;20061;-41
2022/08/30 11:05:08;;;;;;;7.72;2.25;;;;;;;24.80;37.86;102144.66;5033626;28;20041;-41
2022/08/30 11:08:01;;;;;;;6.07;2.97;;;;;;;24.86;37.92;102141.78;5050561;28;20057;-42
2022/08/30 11:11:08;;;;;;;6.32;2.50;;;;;;;24.97;37.20;102140.03;5049871;28;20059;-39
2022/08/30 11:13:35;;;;;;;8.82;2.60;;;;;;;25.58;36.33;102140.28;5039983;28;20120;-42
2022/08/30 11:16:10;;;;;;;11.32;2.40;;;;;;;26.04;35.23;102136.34;5052910;28;20488;-43
2022/08/30 11:18:53;;;;;;;9.10;2.80;;;;;;;26.13;35.67;102138.66;5051146;28;20033;-41
2022/08/30 11:21:39;;;;;;;9.07;2.50;;;;;;;26.76;34.72;102141.94;5051422;28;20029;-42
2022/08/30 11:24:08;;;;;;;14.05;2.75;;;;;;;27.08;33.37;102144.75;5045326;28;20037;-41
2022/08/30 11:26:49;;;;;;;9.20;2.60;;;;;;;27.17;34.31;102150.66;5053964;28;20465;-41
2022/08/30 11:29:33;;;;;;;13.82;2.60;;;;;;;27.34;33.19;102143.94;5055442;28;20082;-41
2022/08/30 11:32:10;;;;;;;10.68;2.65;;;;;;;27.12;32.74;102151.41;5050042;28;20017;-42
2022/08/30 11:34:48;;;;;;;10.93;3.55;;;;;;;27.30;33.08;102137.25;5053017;28;20025;-41